Bangkok, Thailandia

11:29 AM ICT del 02 Agosto 2014 (GMT +0700)
Bangkok International (VTBD) Alt. 13 ft | 13.92 °N, 100.61 °E | Change Station

Current weather conditions updated 29 minutes ago

Mostly Cloudy
Molto nuvoloso
88 °F
Sembra 96 °F
N
10
Vento Variabile Vento da SO

Oggi si prevede un abbassamento della temperatura rispetto a ieri. Temporali sparsi..

Oggi
Massima -- | Minima -- °F
--% Possibilità di precip.
Ieri
Massima -- | Minima -- °F
Precip. -- in
6:02 AM 6:45 PM
Luna crescente, 32% visible
Pressione 29.74 in
Visibilità 6.2 miglia
Nuvole Alcuni 2000 ft
Nubi sparse 12000 ft
Molto nuvoloso 30000 ft
Indice di calore 96 °F
Punto di rugiada 73 °F
Umidità 62%
Piovosità 0.00 in
Spessore del manto nevoso Non disponibile.
Raggi UV 9 fuori da 12
Polline Non disponibile.
Qualità dell'aria Non disponibile.
Flu Activity Non disponibile.
METAR VTBD 020400Z 22009KT 200V260 9999 FEW020 SCT120 BKN300 31/23 Q1007 NOSIG

More Conditions Fewer Conditions

Pressione 29.74 in
Visibilità 6.2 miglia
Nuvole Alcuni 2000 ft
Nubi sparse 12000 ft
Molto nuvoloso 30000 ft
Indice di calore 96 °F
Punto di rugiada 73 °F
Umidità 62%
Piovosità 0.00 in
Spessore del manto nevoso Non disponibile.
Raggi UV 9 fuori da 12
Polline Non disponibile.
Qualità dell'aria Non disponibile.
Flu Activity Non disponibile.
METAR VTBD 020400Z 22009KT 200V260 9999 FEW020 SCT120 BKN300 31/23 Q1007 NOSIG

More Conditions Fewer Conditions

10-Day Weather Forecast

Almanac

Astronomia

Aug. 02, 2014 Alba Tramonto
Ora attuale 06:02 ICT 18:45 ICT
Crepuscolo civile 05:39 ICT 19:08 ICT
Crepuscolo nautico 05:12 ICT 19:34 ICT
Crepuscolo astronomico 04:46 ICT 20:01 ICT
Luna 10:48 ICT 22:53 ICT
Estensione della luce visibile 13h 28m
Lunghezza del giorno
12h 43m
Tomorrow will be 0m 34s shorter.
Luna crescente, 32% of the Moon is Illuminated
Oggi
Luna crescente
Ago 3
Primo quarto
Ago 10
Luna piena
Ago 17
Ultimo quarto
Ago 25
Nuovo

Minime e massime di ieri

Massime Regione Minime Regione

Community

WunderPhotos

Upload Photos

1,739,820 foto caricate!

Nearby

Qualità dell'aria

Not available.

Profondità neve

Not available.

Attività sismica

Città  Distanza Mag. Data & Ora
Non sono state riportate attività sismiche nelle vicinanze.
Minimo Magnitudo Mostrato è 2.5.

Temperature delle acque costiere

Località Temperatura
Nessun dato dalle stazioni

Stazioni meteo nelle vicinanze

Ubicazione della stazione Temp. Indice di calore Punto di rugiada Umidità Vento Precip. Alt. Aggiornato Tipo
Patumwan Demonstration School, Bangkok 88.1 °F 96 °F 73 °F 61% SO  a  5.0 mph 0.00 in / hr 46 ft 11:22 AM ICT Normale
Dokmai, Pravet, Bangkok 89.4 °F 92 °F 67 °F 47% Sud  a  2.0 mph 0.00 in / hr 10 ft 11:29 AM ICT Sequenza Rapida

Show More Stations Show Fewer Stations